sensor_id;sensor_type;location;lat;lon;timestamp;temperature;humidity
16174;DHT22;14031;50.158;8.626;2024-02-26T00:01:05;8.60;99.90
16174;DHT22;14031;50.158;8.626;2024-02-26T00:03:31;8.60;99.90
16174;DHT22;14031;50.158;8.626;2024-02-26T00:06:01;8.60;99.90
16174;DHT22;14031;50.158;8.626;2024-02-26T00:08:28;8.60;99.90
16174;DHT22;14031;50.158;8.626;2024-02-26T00:10:54;8.50;99.90
16174;DHT22;14031;50.158;8.626;2024-02-26T00:13:21;8.60;99.90
16174;DHT22;14031;50.158;8.626;2024-02-26T00:15:48;8.60;99.90
16174;DHT22;14031;50.158;8.626;2024-02-26T00:18:16;8.80;99.90
16174;DHT22;14031;50.158;8.626;2024-02-26T00:20:43;8.50;99.90
16174;DHT22;14031;50.158;8.626;2024-02-26T00:23:09;8.70;99.90
16174;DHT22;14031;50.158;8.626;2024-02-26T00:25:36;8.60;99.90
16174;DHT22;14031;50.158;8.626;2024-02-26T00:28:04;8.70;99.90
16174;DHT22;14031;50.158;8.626;2024-02-26T00:30:31;8.70;99.90
16174;DHT22;14031;50.158;8.626;2024-02-26T00:32:57;8.80;99.90
16174;DHT22;14031;50.158;8.626;2024-02-26T00:35:25;8.60;99.90
16174;DHT22;14031;50.158;8.626;2024-02-26T00:37:52;8.60;99.90
16174;DHT22;14031;50.158;8.626;2024-02-26T00:40:18;8.70;99.90
16174;DHT22;14031;50.158;8.626;2024-02-26T00:42:45;8.60;99.90
16174;DHT22;14031;50.158;8.626;2024-02-26T00:45:13;8.60;99.90
16174;DHT22;14031;50.158;8.626;2024-02-26T00:47:41;8.60;99.90
16174;DHT22;14031;50.158;8.626;2024-02-26T00:50:10;8.60;99.90
16174;DHT22;14031;50.158;8.626;2024-02-26T00:52:38;8.50;99.90
16174;DHT22;14031;50.158;8.626;2024-02-26T00:55:06;8.60;99.90
16174;DHT22;14031;50.158;8.626;2024-02-26T00:57:33;8.60;99.90
16174;DHT22;14031;50.158;8.626;2024-02-26T01:00:00;8.60;99.90
16174;DHT22;14031;50.158;8.626;2024-02-26T01:02:27;8.70;99.90
16174;DHT22;14031;50.158;8.626;2024-02-26T01:04:53;8.60;99.90
16174;DHT22;14031;50.158;8.626;2024-02-26T01:07:20;8.70;99.90
16174;DHT22;14031;50.158;8.626;2024-02-26T01:09:48;8.60;99.90
16174;DHT22;14031;50.158;8.626;2024-02-26T01:12:15;8.70;99.90
16174;DHT22;14031;50.158;8.626;2024-02-26T01:14:42;8.70;99.90
16174;DHT22;14031;50.158;8.626;2024-02-26T01:17:09;8.70;99.90
16174;DHT22;14031;50.158;8.626;2024-02-26T01:19:35;8.50;99.90
16174;DHT22;14031;50.158;8.626;2024-02-26T01:22:02;8.70;99.90
16174;DHT22;14031;50.158;8.626;2024-02-26T01:24:29;8.60;99.90
16174;DHT22;14031;50.158;8.626;2024-02-26T01:26:57;8.60;99.90
16174;DHT22;14031;50.158;8.626;2024-02-26T01:29:24;8.50;99.90
16174;DHT22;14031;50.158;8.626;2024-02-26T01:31:51;8.50;99.90
16174;DHT22;14031;50.158;8.626;2024-02-26T01:34:18;8.50;99.90
16174;DHT22;14031;50.158;8.626;2024-02-26T01:36:44;8.60;99.90
16174;DHT22;14031;50.158;8.626;2024-02-26T01:39:11;8.70;99.90
16174;DHT22;14031;50.158;8.626;2024-02-26T01:41:38;8.60;99.90
16174;DHT22;14031;50.158;8.626;2024-02-26T01:44:06;8.50;99.90
16174;DHT22;14031;50.158;8.626;2024-02-26T01:46:34;8.60;99.90
16174;DHT22;14031;50.158;8.626;2024-02-26T01:49:02;8.50;99.90
16174;DHT22;14031;50.158;8.626;2024-02-26T01:51:30;8.50;99.90
16174;DHT22;14031;50.158;8.626;2024-02-26T01:53:58;8.50;99.90
16174;DHT22;14031;50.158;8.626;2024-02-26T01:56:25;8.40;99.90
16174;DHT22;14031;50.158;8.626;2024-02-26T01:58:56;8.50;99.90
16174;DHT22;14031;50.158;8.626;2024-02-26T02:01:27;8.50;99.90
16174;DHT22;14031;50.158;8.626;2024-02-26T02:03:55;8.50;99.90
16174;DHT22;14031;50.158;8.626;2024-02-26T02:06:22;8.50;99.90
16174;DHT22;14031;50.158;8.626;2024-02-26T02:08:49;8.40;99.90
16174;DHT22;14031;50.158;8.626;2024-02-26T02:11:17;8.50;99.90
16174;DHT22;14031;50.158;8.626;2024-02-26T02:13:43;8.40;99.90
16174;DHT22;14031;50.158;8.626;2024-02-26T02:16:10;8.50;99.90
16174;DHT22;14031;50.158;8.626;2024-02-26T02:18:38;8.50;99.90
16174;DHT22;14031;50.158;8.626;2024-02-26T02:21:06;8.50;99.90
16174;DHT22;14031;50.158;8.626;2024-02-26T02:23:33;8.50;99.90
16174;DHT22;14031;50.158;8.626;2024-02-26T02:26:00;8.40;99.90
16174;DHT22;14031;50.158;8.626;2024-02-26T02:28:27;8.40;99.90
16174;DHT22;14031;50.158;8.626;2024-02-26T02:30:54;8.40;99.90
16174;DHT22;14031;50.158;8.626;2024-02-26T02:33:21;8.40;99.90
16174;DHT22;14031;50.158;8.626;2024-02-26T02:35:49;8.40;99.90
16174;DHT22;14031;50.158;8.626;2024-02-26T02:38:17;8.40;99.90
16174;DHT22;14031;50.158;8.626;2024-02-26T02:40:44;8.40;99.90
16174;DHT22;14031;50.158;8.626;2024-02-26T02:43:11;8.40;99.90
16174;DHT22;14031;50.158;8.626;2024-02-26T02:45:37;8.40;99.90
16174;DHT22;14031;50.158;8.626;2024-02-26T02:48:05;8.40;99.90
16174;DHT22;14031;50.158;8.626;2024-02-26T02:50:31;8.40;99.90
16174;DHT22;14031;50.158;8.626;2024-02-26T02:52:58;8.40;99.90
16174;DHT22;14031;50.158;8.626;2024-02-26T02:55:27;8.40;99.90
16174;DHT22;14031;50.158;8.626;2024-02-26T02:57:54;8.50;99.90
16174;DHT22;14031;50.158;8.626;2024-02-26T03:00:21;8.40;99.90
16174;DHT22;14031;50.158;8.626;2024-02-26T03:02:48;8.40;99.90
16174;DHT22;14031;50.158;8.626;2024-02-26T03:05:15;8.40;99.90
16174;DHT22;14031;50.158;8.626;2024-02-26T03:07:42;8.40;99.90
16174;DHT22;14031;50.158;8.626;2024-02-26T03:10:09;8.40;99.90
16174;DHT22;14031;50.158;8.626;2024-02-26T03:12:37;8.30;99.90
16174;DHT22;14031;50.158;8.626;2024-02-26T03:15:04;8.30;99.90
16174;DHT22;14031;50.158;8.626;2024-02-26T03:17:31;8.30;99.90
16174;DHT22;14031;50.158;8.626;2024-02-26T03:19:58;8.30;99.90
16174;DHT22;14031;50.158;8.626;2024-02-26T03:22:25;8.40;99.90
16174;DHT22;14031;50.158;8.626;2024-02-26T03:24:51;8.40;99.90
16174;DHT22;14031;50.158;8.626;2024-02-26T03:27:18;8.30;99.90
16174;DHT22;14031;50.158;8.626;2024-02-26T03:29:46;8.30;99.90
16174;DHT22;14031;50.158;8.626;2024-02-26T03:32:13;8.10;99.90
16174;DHT22;14031;50.158;8.626;2024-02-26T03:34:40;8.30;99.90
16174;DHT22;14031;50.158;8.626;2024-02-26T03:37:07;8.30;99.90
16174;DHT22;14031;50.158;8.626;2024-02-26T03:39:36;8.20;99.90
16174;DHT22;14031;50.158;8.626;2024-02-26T03:42:03;8.30;99.90
16174;DHT22;14031;50.158;8.626;2024-02-26T03:44:30;8.30;99.90
16174;DHT22;14031;50.158;8.626;2024-02-26T03:46:58;8.30;99.90
16174;DHT22;14031;50.158;8.626;2024-02-26T03:49:25;8.30;99.90
16174;DHT22;14031;50.158;8.626;2024-02-26T03:51:51;8.30;99.90
16174;DHT22;14031;50.158;8.626;2024-02-26T03:54:18;8.30;99.90
16174;DHT22;14031;50.158;8.626;2024-02-26T03:56:45;8.30;99.90
16174;DHT22;14031;50.158;8.626;2024-02-26T03:59:11;8.20;99.90
16174;DHT22;14031;50.158;8.626;2024-02-26T04:01:38;8.30;99.90
16174;DHT22;14031;50.158;8.626;2024-02-26T04:04:06;8.30;99.90
16174;DHT22;14031;50.158;8.626;2024-02-26T04:06:33;8.30;99.90
16174;DHT22;14031;50.158;8.626;2024-02-26T04:09:00;8.30;99.90
16174;DHT22;14031;50.158;8.626;2024-02-26T04:11:29;8.30;99.90
16174;DHT22;14031;50.158;8.626;2024-02-26T04:13:56;8.20;99.90
16174;DHT22;14031;50.158;8.626;2024-02-26T04:16:22;8.30;99.90
16174;DHT22;14031;50.158;8.626;2024-02-26T04:18:49;8.30;99.90
16174;DHT22;14031;50.158;8.626;2024-02-26T04:21:17;8.30;99.90
16174;DHT22;14031;50.158;8.626;2024-02-26T04:23:44;8.30;99.90
16174;DHT22;14031;50.158;8.626;2024-02-26T04:26:11;8.30;99.90
16174;DHT22;14031;50.158;8.626;2024-02-26T04:28:37;8.30;99.90
16174;DHT22;14031;50.158;8.626;2024-02-26T04:31:04;8.30;99.90
16174;DHT22;14031;50.158;8.626;2024-02-26T04:33:34;8.40;99.90
16174;DHT22;14031;50.158;8.626;2024-02-26T04:36:01;8.30;99.90
16174;DHT22;14031;50.158;8.626;2024-02-26T04:38:30;8.30;99.90
16174;DHT22;14031;50.158;8.626;2024-02-26T04:40:56;8.20;99.90
16174;DHT22;14031;50.158;8.626;2024-02-26T04:43:23;8.30;99.90
16174;DHT22;14031;50.158;8.626;2024-02-26T04:45:50;8.20;99.90
16174;DHT22;14031;50.158;8.626;2024-02-26T04:48:18;8.30;99.90
16174;DHT22;14031;50.158;8.626;2024-02-26T04:50:44;8.30;99.90
16174;DHT22;14031;50.158;8.626;2024-02-26T04:53:11;8.20;99.90
16174;DHT22;14031;50.158;8.626;2024-02-26T04:55:38;8.20;99.90
16174;DHT22;14031;50.158;8.626;2024-02-26T04:58:05;8.20;99.90
16174;DHT22;14031;50.158;8.626;2024-02-26T05:00:32;8.30;99.90
16174;DHT22;14031;50.158;8.626;2024-02-26T05:02:58;8.20;99.90
16174;DHT22;14031;50.158;8.626;2024-02-26T05:05:25;8.20;99.90
16174;DHT22;14031;50.158;8.626;2024-02-26T05:07:52;8.10;99.90
16174;DHT22;14031;50.158;8.626;2024-02-26T05:10:19;8.20;99.90
16174;DHT22;14031;50.158;8.626;2024-02-26T05:12:47;8.10;99.90
16174;DHT22;14031;50.158;8.626;2024-02-26T05:15:14;8.10;99.90
16174;DHT22;14031;50.158;8.626;2024-02-26T05:17:44;8.10;99.90
16174;DHT22;14031;50.158;8.626;2024-02-26T05:20:10;8.10;99.90
16174;DHT22;14031;50.158;8.626;2024-02-26T05:22:37;8.00;99.90
16174;DHT22;14031;50.158;8.626;2024-02-26T05:25:04;8.00;99.90
16174;DHT22;14031;50.158;8.626;2024-02-26T05:27:31;8.00;99.90
16174;DHT22;14031;50.158;8.626;2024-02-26T05:29:59;8.00;99.90
16174;DHT22;14031;50.158;8.626;2024-02-26T05:32:26;8.00;99.90
16174;DHT22;14031;50.158;8.626;2024-02-26T05:34:53;8.00;99.90
16174;DHT22;14031;50.158;8.626;2024-02-26T05:37:19;7.90;99.90
16174;DHT22;14031;50.158;8.626;2024-02-26T05:39:46;7.90;99.90
16174;DHT22;14031;50.158;8.626;2024-02-26T05:42:13;7.90;99.90
16174;DHT22;14031;50.158;8.626;2024-02-26T05:44:40;7.90;99.90
16174;DHT22;14031;50.158;8.626;2024-02-26T05:47:08;7.90;99.90
16174;DHT22;14031;50.158;8.626;2024-02-26T05:49:34;7.80;99.90
16174;DHT22;14031;50.158;8.626;2024-02-26T05:52:01;7.80;99.90
16174;DHT22;14031;50.158;8.626;2024-02-26T05:54:28;7.80;99.90
16174;DHT22;14031;50.158;8.626;2024-02-26T05:56:55;7.80;99.90
16174;DHT22;14031;50.158;8.626;2024-02-26T05:59:22;7.80;99.90
16174;DHT22;14031;50.158;8.626;2024-02-26T06:01:48;7.80;99.90
16174;DHT22;14031;50.158;8.626;2024-02-26T06:04:17;7.80;99.90
16174;DHT22;14031;50.158;8.626;2024-02-26T06:06:44;7.80;99.90
16174;DHT22;14031;50.158;8.626;2024-02-26T06:09:11;7.80;99.90
16174;DHT22;14031;50.158;8.626;2024-02-26T06:11:37;7.80;99.90
16174;DHT22;14031;50.158;8.626;2024-02-26T06:14:04;7.80;99.90
16174;DHT22;14031;50.158;8.626;2024-02-26T06:16:31;7.70;99.90
16174;DHT22;14031;50.158;8.626;2024-02-26T06:18:58;7.70;99.90
16174;DHT22;14031;50.158;8.626;2024-02-26T06:21:27;7.80;99.90
16174;DHT22;14031;50.158;8.626;2024-02-26T06:23:53;7.70;99.90
16174;DHT22;14031;50.158;8.626;2024-02-26T06:26:20;7.80;99.90
16174;DHT22;14031;50.158;8.626;2024-02-26T06:28:47;7.80;99.90
16174;DHT22;14031;50.158;8.626;2024-02-26T06:31:14;7.80;99.90
16174;DHT22;14031;50.158;8.626;2024-02-26T06:33:40;7.70;99.90
16174;DHT22;14031;50.158;8.626;2024-02-26T06:36:07;7.70;99.90
16174;DHT22;14031;50.158;8.626;2024-02-26T06:38:35;7.70;99.90
16174;DHT22;14031;50.158;8.626;2024-02-26T06:41:02;7.80;99.90
16174;DHT22;14031;50.158;8.626;2024-02-26T06:43:29;7.80;99.90
16174;DHT22;14031;50.158;8.626;2024-02-26T06:45:56;7.80;99.90
16174;DHT22;14031;50.158;8.626;2024-02-26T06:48:24;7.80;99.90
16174;DHT22;14031;50.158;8.626;2024-02-26T06:50:50;7.70;99.90
16174;DHT22;14031;50.158;8.626;2024-02-26T06:53:17;7.70;99.90
16174;DHT22;14031;50.158;8.626;2024-02-26T06:55:45;7.70;99.90
16174;DHT22;14031;50.158;8.626;2024-02-26T06:58:12;7.70;99.90
16174;DHT22;14031;50.158;8.626;2024-02-26T07:00:39;7.70;99.90
16174;DHT22;14031;50.158;8.626;2024-02-26T07:03:06;7.70;99.90
16174;DHT22;14031;50.158;8.626;2024-02-26T07:05:33;7.70;99.90
16174;DHT22;14031;50.158;8.626;2024-02-26T07:08:00;7.70;99.90
16174;DHT22;14031;50.158;8.626;2024-02-26T07:10:26;7.70;99.90
16174;DHT22;14031;50.158;8.626;2024-02-26T07:12:54;7.70;99.90
16174;DHT22;14031;50.158;8.626;2024-02-26T07:15:21;7.80;99.90
16174;DHT22;14031;50.158;8.626;2024-02-26T07:17:48;7.70;99.90
16174;DHT22;14031;50.158;8.626;2024-02-26T07:20:15;7.80;99.90
16174;DHT22;14031;50.158;8.626;2024-02-26T07:22:43;7.70;99.90
16174;DHT22;14031;50.158;8.626;2024-02-26T07:25:10;7.90;99.90
16174;DHT22;14031;50.158;8.626;2024-02-26T07:27:38;7.70;99.90
16174;DHT22;14031;50.158;8.626;2024-02-26T07:30:08;7.80;99.90
16174;DHT22;14031;50.158;8.626;2024-02-26T07:32:34;7.70;99.90
16174;DHT22;14031;50.158;8.626;2024-02-26T07:35:01;7.70;99.90
16174;DHT22;14031;50.158;8.626;2024-02-26T07:37:28;7.90;99.90
16174;DHT22;14031;50.158;8.626;2024-02-26T07:39:55;7.70;99.90
16174;DHT22;14031;50.158;8.626;2024-02-26T07:42:22;7.90;99.90
16174;DHT22;14031;50.158;8.626;2024-02-26T07:44:48;7.70;99.90
16174;DHT22;14031;50.158;8.626;2024-02-26T07:47:16;7.80;99.90
16174;DHT22;14031;50.158;8.626;2024-02-26T07:49:43;7.70;99.90
16174;DHT22;14031;50.158;8.626;2024-02-26T07:52:10;7.70;99.90
16174;DHT22;14031;50.158;8.626;2024-02-26T07:54:37;7.70;99.90
16174;DHT22;14031;50.158;8.626;2024-02-26T07:57:04;7.80;99.90
16174;DHT22;14031;50.158;8.626;2024-02-26T07:59:31;7.70;99.90
16174;DHT22;14031;50.158;8.626;2024-02-26T08:01:58;7.80;99.90
16174;DHT22;14031;50.158;8.626;2024-02-26T08:04:27;7.80;99.90
16174;DHT22;14031;50.158;8.626;2024-02-26T08:06:54;7.80;99.90
16174;DHT22;14031;50.158;8.626;2024-02-26T08:09:21;7.80;99.90
16174;DHT22;14031;50.158;8.626;2024-02-26T08:11:47;7.80;99.90
16174;DHT22;14031;50.158;8.626;2024-02-26T08:14:14;7.80;99.90
16174;DHT22;14031;50.158;8.626;2024-02-26T08:16:41;7.80;99.90
16174;DHT22;14031;50.158;8.626;2024-02-26T08:19:08;7.90;99.90
16174;DHT22;14031;50.158;8.626;2024-02-26T08:21:37;7.90;99.90
16174;DHT22;14031;50.158;8.626;2024-02-26T08:24:04;7.90;99.90
16174;DHT22;14031;50.158;8.626;2024-02-26T08:26:31;7.90;99.90
16174;DHT22;14031;50.158;8.626;2024-02-26T08:28:57;8.00;99.90
16174;DHT22;14031;50.158;8.626;2024-02-26T08:31:24;8.10;99.90
16174;DHT22;14031;50.158;8.626;2024-02-26T08:33:51;8.00;99.90
16174;DHT22;14031;50.158;8.626;2024-02-26T08:36:18;8.20;99.90
16174;DHT22;14031;50.158;8.626;2024-02-26T08:38:46;8.20;99.90
16174;DHT22;14031;50.158;8.626;2024-02-26T08:41:12;8.30;99.90
16174;DHT22;14031;50.158;8.626;2024-02-26T08:43:39;8.40;99.90
16174;DHT22;14031;50.158;8.626;2024-02-26T08:46:08;8.40;99.90
16174;DHT22;14031;50.158;8.626;2024-02-26T08:48:35;8.50;99.90
16174;DHT22;14031;50.158;8.626;2024-02-26T08:51:05;8.50;99.90
16174;DHT22;14031;50.158;8.626;2024-02-26T08:53:32;8.50;99.90
16174;DHT22;14031;50.158;8.626;2024-02-26T08:56:00;8.50;99.90
16174;DHT22;14031;50.158;8.626;2024-02-26T08:58:27;8.50;99.90
16174;DHT22;14031;50.158;8.626;2024-02-26T09:00:54;8.60;99.90
16174;DHT22;14031;50.158;8.626;2024-02-26T09:03:21;8.60;99.90
16174;DHT22;14031;50.158;8.626;2024-02-26T09:05:48;8.60;99.90
16174;DHT22;14031;50.158;8.626;2024-02-26T09:08:13;8.60;99.90
16174;DHT22;14031;50.158;8.626;2024-02-26T09:10:40;8.50;99.90
16174;DHT22;14031;50.158;8.626;2024-02-26T09:13:08;8.60;99.90
16174;DHT22;14031;50.158;8.626;2024-02-26T09:15:35;8.60;99.90
16174;DHT22;14031;50.158;8.626;2024-02-26T09:18:02;8.60;99.90
16174;DHT22;14031;50.158;8.626;2024-02-26T09:20:29;8.70;99.90
16174;DHT22;14031;50.158;8.626;2024-02-26T09:22:56;8.70;99.90
16174;DHT22;14031;50.158;8.626;2024-02-26T09:25:23;8.80;99.90
16174;DHT22;14031;50.158;8.626;2024-02-26T09:27:49;8.90;99.90
16174;DHT22;14031;50.158;8.626;2024-02-26T09:30:17;9.00;99.90
16174;DHT22;14031;50.158;8.626;2024-02-26T09:32:46;9.00;99.90
16174;DHT22;14031;50.158;8.626;2024-02-26T09:35:13;9.10;99.90
16174;DHT22;14031;50.158;8.626;2024-02-26T09:37:40;9.00;99.90
16174;DHT22;14031;50.158;8.626;2024-02-26T09:40:10;9.20;99.90
16174;DHT22;14031;50.158;8.626;2024-02-26T09:42:38;9.30;99.90
16174;DHT22;14031;50.158;8.626;2024-02-26T09:45:10;9.40;99.90
16174;DHT22;14031;50.158;8.626;2024-02-26T09:47:39;9.60;99.90
16174;DHT22;14031;50.158;8.626;2024-02-26T09:50:09;9.60;99.90
16174;DHT22;14031;50.158;8.626;2024-02-26T09:52:38;9.60;99.90
16174;DHT22;14031;50.158;8.626;2024-02-26T09:55:08;9.60;99.90
16174;DHT22;14031;50.158;8.626;2024-02-26T09:57:36;9.70;99.90
16174;DHT22;14031;50.158;8.626;2024-02-26T10:00:04;9.70;99.90
16174;DHT22;14031;50.158;8.626;2024-02-26T10:02:33;9.80;99.90
16174;DHT22;14031;50.158;8.626;2024-02-26T10:05:05;10.00;99.90
16174;DHT22;14031;50.158;8.626;2024-02-26T10:07:34;10.00;99.90
16174;DHT22;14031;50.158;8.626;2024-02-26T10:10:01;10.10;99.90
16174;DHT22;14031;50.158;8.626;2024-02-26T10:12:29;10.20;99.90
16174;DHT22;14031;50.158;8.626;2024-02-26T10:14:56;10.50;99.90
16174;DHT22;14031;50.158;8.626;2024-02-26T10:17:24;10.50;99.90
16174;DHT22;14031;50.158;8.626;2024-02-26T10:19:51;10.50;99.90
16174;DHT22;14031;50.158;8.626;2024-02-26T10:22:23;10.60;99.90
16174;DHT22;14031;50.158;8.626;2024-02-26T10:24:50;10.60;99.90
16174;DHT22;14031;50.158;8.626;2024-02-26T10:27:16;10.60;99.90
16174;DHT22;14031;50.158;8.626;2024-02-26T10:29:43;10.60;99.90
16174;DHT22;14031;50.158;8.626;2024-02-26T10:32:13;10.60;99.90
16174;DHT22;14031;50.158;8.626;2024-02-26T10:34:40;10.60;99.90
16174;DHT22;14031;50.158;8.626;2024-02-26T10:37:07;10.60;99.90
16174;DHT22;14031;50.158;8.626;2024-02-26T10:39:37;10.60;99.90
16174;DHT22;14031;50.158;8.626;2024-02-26T10:42:04;10.60;99.90
16174;DHT22;14031;50.158;8.626;2024-02-26T10:44:35;10.60;99.90
16174;DHT22;14031;50.158;8.626;2024-02-26T10:47:02;10.60;99.90
16174;DHT22;14031;50.158;8.626;2024-02-26T10:49:29;10.60;99.90
16174;DHT22;14031;50.158;8.626;2024-02-26T10:51:56;10.70;99.90
16174;DHT22;14031;50.158;8.626;2024-02-26T10:54:25;10.80;99.90
16174;DHT22;14031;50.158;8.626;2024-02-26T10:56:56;10.70;99.90
16174;DHT22;14031;50.158;8.626;2024-02-26T10:59:23;10.80;99.90
16174;DHT22;14031;50.158;8.626;2024-02-26T11:01:50;10.80;99.90
16174;DHT22;14031;50.158;8.626;2024-02-26T11:04:17;10.90;99.90
16174;DHT22;14031;50.158;8.626;2024-02-26T11:06:45;11.00;99.90
16174;DHT22;14031;50.158;8.626;2024-02-26T11:09:14;11.10;99.90
16174;DHT22;14031;50.158;8.626;2024-02-26T11:11:41;11.20;99.90
16174;DHT22;14031;50.158;8.626;2024-02-26T11:14:10;11.20;99.90
16174;DHT22;14031;50.158;8.626;2024-02-26T11:16:39;11.40;99.90
16174;DHT22;14031;50.158;8.626;2024-02-26T11:19:06;11.50;99.90
16174;DHT22;14031;50.158;8.626;2024-02-26T11:21:35;11.60;99.90
16174;DHT22;14031;50.158;8.626;2024-02-26T11:24:07;11.70;99.90
16174;DHT22;14031;50.158;8.626;2024-02-26T11:26:46;11.70;99.90
16174;DHT22;14031;50.158;8.626;2024-02-26T11:29:21;11.70;99.90
16174;DHT22;14031;50.158;8.626;2024-02-26T11:31:48;11.90;99.90
16174;DHT22;14031;50.158;8.626;2024-02-26T11:34:17;12.10;99.90
16174;DHT22;14031;50.158;8.626;2024-02-26T11:36:44;12.30;99.90
16174;DHT22;14031;50.158;8.626;2024-02-26T11:39:12;12.50;99.90
16174;DHT22;14031;50.158;8.626;2024-02-26T11:41:42;12.60;99.90
16174;DHT22;14031;50.158;8.626;2024-02-26T11:44:09;12.70;99.90
16174;DHT22;14031;50.158;8.626;2024-02-26T11:46:40;12.80;99.90
16174;DHT22;14031;50.158;8.626;2024-02-26T11:49:29;13.00;99.90
16174;DHT22;14031;50.158;8.626;2024-02-26T11:51:57;13.00;99.90
16174;DHT22;14031;50.158;8.626;2024-02-26T11:54:44;12.90;99.90
16174;DHT22;14031;50.158;8.626;2024-02-26T11:57:25;12.80;99.90
16174;DHT22;14031;50.158;8.626;2024-02-26T11:59:53;12.80;99.90
16174;DHT22;14031;50.158;8.626;2024-02-26T12:02:40;12.90;99.90
16174;DHT22;14031;50.158;8.626;2024-02-26T12:05:10;13.00;99.90
16174;DHT22;14031;50.158;8.626;2024-02-26T12:07:40;13.00;99.90
16174;DHT22;14031;50.158;8.626;2024-02-26T12:10:21;13.00;99.90
16174;DHT22;14031;50.158;8.626;2024-02-26T12:12:53;13.00;99.90
16174;DHT22;14031;50.158;8.626;2024-02-26T12:15:22;13.00;99.90
16174;DHT22;14031;50.158;8.626;2024-02-26T12:17:51;13.00;99.90
16174;DHT22;14031;50.158;8.626;2024-02-26T12:20:18;13.10;99.90
16174;DHT22;14031;50.158;8.626;2024-02-26T12:22:46;13.20;99.90
16174;DHT22;14031;50.158;8.626;2024-02-26T12:25:13;13.10;99.90
16174;DHT22;14031;50.158;8.626;2024-02-26T12:27:40;13.10;99.90
16174;DHT22;14031;50.158;8.626;2024-02-26T12:30:08;13.20;99.90
16174;DHT22;14031;50.158;8.626;2024-02-26T12:32:35;13.30;99.90
16174;DHT22;14031;50.158;8.626;2024-02-26T12:35:05;13.50;99.90
16174;DHT22;14031;50.158;8.626;2024-02-26T12:37:32;13.50;99.90
16174;DHT22;14031;50.158;8.626;2024-02-26T12:40:02;13.50;99.90
16174;DHT22;14031;50.158;8.626;2024-02-26T12:42:29;13.40;99.90
16174;DHT22;14031;50.158;8.626;2024-02-26T12:44:58;13.40;99.90
16174;DHT22;14031;50.158;8.626;2024-02-26T12:47:24;13.30;99.90
16174;DHT22;14031;50.158;8.626;2024-02-26T12:49:51;13.30;99.90
16174;DHT22;14031;50.158;8.626;2024-02-26T12:52:20;13.20;99.90
16174;DHT22;14031;50.158;8.626;2024-02-26T12:54:47;13.00;99.90
16174;DHT22;14031;50.158;8.626;2024-02-26T12:57:14;12.80;99.90
16174;DHT22;14031;50.158;8.626;2024-02-26T12:59:41;12.70;99.90
16174;DHT22;14031;50.158;8.626;2024-02-26T13:02:09;12.70;99.90
16174;DHT22;14031;50.158;8.626;2024-02-26T13:04:36;12.70;99.90
16174;DHT22;14031;50.158;8.626;2024-02-26T13:07:04;12.80;99.90
16174;DHT22;14031;50.158;8.626;2024-02-26T13:09:34;12.90;99.90
16174;DHT22;14031;50.158;8.626;2024-02-26T13:12:04;13.20;99.90
16174;DHT22;14031;50.158;8.626;2024-02-26T13:14:30;13.30;99.90
16174;DHT22;14031;50.158;8.626;2024-02-26T13:17:00;13.30;99.90
16174;DHT22;14031;50.158;8.626;2024-02-26T13:19:27;13.40;99.90
16174;DHT22;14031;50.158;8.626;2024-02-26T13:21:54;13.30;99.90
16174;DHT22;14031;50.158;8.626;2024-02-26T13:24:22;13.40;99.90
16174;DHT22;14031;50.158;8.626;2024-02-26T13:26:55;13.40;99.90
16174;DHT22;14031;50.158;8.626;2024-02-26T13:29:22;13.50;99.90
16174;DHT22;14031;50.158;8.626;2024-02-26T13:31:54;13.40;99.90
16174;DHT22;14031;50.158;8.626;2024-02-26T13:34:25;13.40;99.90
16174;DHT22;14031;50.158;8.626;2024-02-26T13:36:52;13.40;99.90
16174;DHT22;14031;50.158;8.626;2024-02-26T13:39:22;13.50;99.90
16174;DHT22;14031;50.158;8.626;2024-02-26T13:41:50;13.60;99.90
16174;DHT22;14031;50.158;8.626;2024-02-26T13:44:19;13.70;99.90
16174;DHT22;14031;50.158;8.626;2024-02-26T13:46:46;13.70;99.90
16174;DHT22;14031;50.158;8.626;2024-02-26T13:49:13;13.80;99.90
16174;DHT22;14031;50.158;8.626;2024-02-26T13:51:40;13.80;99.90
16174;DHT22;14031;50.158;8.626;2024-02-26T13:54:08;13.80;99.90
16174;DHT22;14031;50.158;8.626;2024-02-26T13:56:35;13.80;99.90
16174;DHT22;14031;50.158;8.626;2024-02-26T13:59:02;13.80;99.90
16174;DHT22;14031;50.158;8.626;2024-02-26T14:01:30;13.80;99.90
16174;DHT22;14031;50.158;8.626;2024-02-26T14:03:59;13.80;99.90
16174;DHT22;14031;50.158;8.626;2024-02-26T14:06:27;13.90;99.90
16174;DHT22;14031;50.158;8.626;2024-02-26T14:08:54;13.90;99.90
16174;DHT22;14031;50.158;8.626;2024-02-26T14:11:21;13.90;99.90
16174;DHT22;14031;50.158;8.626;2024-02-26T14:13:47;13.90;99.90
16174;DHT22;14031;50.158;8.626;2024-02-26T14:16:14;13.80;99.90
16174;DHT22;14031;50.158;8.626;2024-02-26T14:18:43;13.70;99.90
16174;DHT22;14031;50.158;8.626;2024-02-26T14:21:10;13.70;99.90
16174;DHT22;14031;50.158;8.626;2024-02-26T14:23:37;13.70;99.90
16174;DHT22;14031;50.158;8.626;2024-02-26T14:26:05;13.70;99.90
16174;DHT22;14031;50.158;8.626;2024-02-26T14:28:32;13.60;99.90
16174;DHT22;14031;50.158;8.626;2024-02-26T14:30:59;13.60;99.90
16174;DHT22;14031;50.158;8.626;2024-02-26T14:33:26;13.50;99.90
16174;DHT22;14031;50.158;8.626;2024-02-26T14:35:54;13.50;99.90
16174;DHT22;14031;50.158;8.626;2024-02-26T14:38:21;13.60;99.90
16174;DHT22;14031;50.158;8.626;2024-02-26T14:40:49;13.60;99.90
16174;DHT22;14031;50.158;8.626;2024-02-26T14:43:16;13.60;99.90
16174;DHT22;14031;50.158;8.626;2024-02-26T14:45:42;13.80;99.90
16174;DHT22;14031;50.158;8.626;2024-02-26T14:48:09;14.00;99.90
16174;DHT22;14031;50.158;8.626;2024-02-26T14:50:36;14.20;99.90
16174;DHT22;14031;50.158;8.626;2024-02-26T14:53:04;14.40;99.90
16174;DHT22;14031;50.158;8.626;2024-02-26T14:55:31;14.50;99.90
16174;DHT22;14031;50.158;8.626;2024-02-26T14:57:59;14.40;99.90
16174;DHT22;14031;50.158;8.626;2024-02-26T15:00:26;14.40;99.90
16174;DHT22;14031;50.158;8.626;2024-02-26T15:02:53;14.30;99.90
16174;DHT22;14031;50.158;8.626;2024-02-26T15:05:21;14.20;99.90
16174;DHT22;14031;50.158;8.626;2024-02-26T15:07:48;14.10;99.90
16174;DHT22;14031;50.158;8.626;2024-02-26T15:10:16;14.00;99.90
16174;DHT22;14031;50.158;8.626;2024-02-26T15:12:43;13.90;99.90
16174;DHT22;14031;50.158;8.626;2024-02-26T15:15:10;13.80;99.90
16174;DHT22;14031;50.158;8.626;2024-02-26T15:17:37;13.70;99.90
16174;DHT22;14031;50.158;8.626;2024-02-26T15:20:04;13.70;99.90
16174;DHT22;14031;50.158;8.626;2024-02-26T15:22:33;13.70;99.90
16174;DHT22;14031;50.158;8.626;2024-02-26T15:24:59;13.70;99.90
16174;DHT22;14031;50.158;8.626;2024-02-26T15:27:28;13.60;99.90
16174;DHT22;14031;50.158;8.626;2024-02-26T15:29:54;13.60;99.90
16174;DHT22;14031;50.158;8.626;2024-02-26T15:32:24;13.50;99.90
16174;DHT22;14031;50.158;8.626;2024-02-26T15:34:52;13.40;99.90
16174;DHT22;14031;50.158;8.626;2024-02-26T15:37:19;13.40;99.90
16174;DHT22;14031;50.158;8.626;2024-02-26T15:39:45;13.30;99.90
16174;DHT22;14031;50.158;8.626;2024-02-26T15:42:12;13.30;99.90